createdAt,value
2019-02-23T00:00:01.114Z,101156.48
2019-02-23T00:02:29.505Z,101153.02
2019-02-23T00:04:57.908Z,101152.18
2019-02-23T00:07:26.298Z,101154.06
2019-02-23T00:09:54.742Z,101157.04
2019-02-23T00:12:23.127Z,101160.05
2019-02-23T00:14:51.522Z,101160.55
2019-02-23T00:17:19.974Z,101162.27
2019-02-23T00:19:48.371Z,101168.87
2019-02-23T00:22:16.812Z,101166.34
2019-02-23T00:24:45.218Z,101159.73
2019-02-23T00:27:13.607Z,101159.84
2019-02-23T00:29:41.995Z,101143.28
2019-02-23T00:32:10.475Z,101143.28
2019-02-23T00:34:38.863Z,101149.78
2019-02-23T00:37:07.325Z,101150.76
2019-02-23T00:39:35.726Z,101155.51
2019-02-23T00:42:04.162Z,101163.91
2019-02-23T00:44:32.566Z,101159.08
2019-02-23T00:47:00.992Z,101154.66
2019-02-23T00:49:36.239Z,101156.38
2019-02-23T00:51:59.481Z,101154.66
2019-02-23T00:54:27.884Z,101155.51
2019-02-23T00:56:56.278Z,101151.15
2019-02-23T00:59:24.662Z,101153.34
2019-02-23T01:01:53.034Z,101148.95
2019-02-23T01:04:21.440Z,101142.89
2019-02-23T01:06:49.816Z,101150.05
2019-02-23T01:09:18.214Z,101143.89
2019-02-23T01:11:46.658Z,101144.70
2019-02-23T01:14:15.056Z,101152.16
2019-02-23T01:16:43.445Z,101144.77
2019-02-23T01:19:11.840Z,101137.78
2019-02-23T01:21:40.275Z,101136.97
2019-02-23T01:24:08.658Z,101136.97
2019-02-23T01:26:37.039Z,101131.68
2019-02-23T01:29:05.433Z,101136.47
2019-02-23T01:31:33.887Z,101129.91
2019-02-23T01:34:02.261Z,101129.97
2019-02-23T01:36:31.280Z,101126.06
2019-02-23T01:38:59.595Z,101125.58
2019-02-23T01:41:27.980Z,101129.65
2019-02-23T01:43:56.356Z,101129.54
2019-02-23T01:46:24.748Z,101132.66
2019-02-23T01:48:53.114Z,101135.80
2019-02-23T01:51:21.504Z,101134.48
2019-02-23T01:53:49.883Z,101132.84
2019-02-23T01:56:18.407Z,101129.70
2019-02-23T01:58:46.786Z,101127.61
2019-02-23T02:01:15.175Z,101126.72
2019-02-23T02:03:43.625Z,101129.70
2019-02-23T02:06:12.089Z,101124.87
2019-02-23T02:08:40.791Z,101129.80
2019-02-23T02:11:09.188Z,101132.50
2019-02-23T02:13:37.562Z,101142.08
2019-02-23T02:16:06.088Z,101142.56
2019-02-23T02:18:34.512Z,101138.62
2019-02-23T02:21:02.895Z,101133.92
2019-02-23T02:23:31.725Z,101131.67
2019-02-23T02:26:00.099Z,101137.45
2019-02-23T02:28:28.489Z,101133.16
2019-02-23T02:30:56.876Z,101132.67
2019-02-23T02:33:25.261Z,101135.80
2019-02-23T02:35:53.649Z,101142.95
2019-02-23T02:38:22.037Z,101133.20
2019-02-23T02:40:50.428Z,101144.22
2019-02-23T02:43:18.796Z,101131.06
2019-02-23T02:45:47.180Z,101131.06
2019-02-23T02:48:15.555Z,101124.91
2019-02-23T02:50:43.934Z,101126.17
2019-02-23T02:53:12.311Z,101114.80
2019-02-23T02:55:40.695Z,101107.91
2019-02-23T02:58:09.071Z,101115.01
2019-02-23T03:00:37.470Z,101108.91
2019-02-23T03:03:05.847Z,101111.92
2019-02-23T03:05:34.228Z,101116.72
2019-02-23T03:08:02.603Z,101121.11
2019-02-23T03:10:31.785Z,101126.02
2019-02-23T03:13:00.169Z,101128.70
2019-02-23T03:15:28.562Z,101124.69
2019-02-23T03:17:56.935Z,101126.02
2019-02-23T03:20:36.309Z,101124.69
2019-02-23T03:22:55.465Z,101129.09
2019-02-23T03:25:23.833Z,101115.88
2019-02-23T03:27:52.220Z,101121.66
2019-02-23T03:30:20.636Z,101113.31
2019-02-23T03:32:49.050Z,101114.69
2019-02-23T03:35:17.457Z,101114.19
2019-02-23T03:37:45.902Z,101108.03
2019-02-23T03:40:14.307Z,101110.74
2019-02-23T03:42:42.677Z,101109.08
2019-02-23T03:45:11.059Z,101105.07
2019-02-23T03:47:39.461Z,101101.55
2019-02-23T03:50:08.346Z,101101.61
2019-02-23T03:52:36.733Z,101102.48
2019-02-23T03:55:05.390Z,101113.84
2019-02-23T03:57:33.793Z,101116.07
2019-02-23T04:00:02.278Z,101115.63
2019-02-23T04:02:30.668Z,101113.93
2019-02-23T04:04:59.065Z,101113.11
2019-02-23T04:07:27.449Z,101118.86
2019-02-23T04:09:55.856Z,101114.53
2019-02-23T04:12:24.256Z,101124.31
2019-02-23T04:14:52.744Z,101118.09
2019-02-23T04:17:21.144Z,101123.97
2019-02-23T04:19:49.519Z,101127.05
2019-02-23T04:22:17.972Z,101123.64
2019-02-23T04:24:46.354Z,101134.52
2019-02-23T04:27:14.755Z,101133.25
2019-02-23T04:29:43.139Z,101131.27
2019-02-23T04:32:11.518Z,101140.79
2019-02-23T04:34:39.891Z,101138.10
2019-02-23T04:37:08.342Z,101142.06
2019-02-23T04:39:36.724Z,101149.48
2019-02-23T04:42:05.111Z,101146.06
2019-02-23T04:44:33.491Z,101163.64
2019-02-23T04:47:02.420Z,101178.66
2019-02-23T04:49:30.812Z,101170.45
2019-02-23T04:51:59.224Z,101174.27
2019-02-23T04:54:27.845Z,101176.41
2019-02-23T04:56:56.236Z,101177.73
2019-02-23T04:59:24.610Z,101181.20
2019-02-23T05:01:53.017Z,101179.05
2019-02-23T05:04:21.423Z,101177.23
2019-02-23T05:06:49.808Z,101187.30
2019-02-23T05:09:18.191Z,101181.14
2019-02-23T05:11:46.582Z,101183.83
2019-02-23T05:14:14.956Z,101193.89
2019-02-23T05:16:43.335Z,101193.02
2019-02-23T05:19:11.804Z,101184.23
2019-02-23T05:21:40.178Z,101187.30
2019-02-23T05:24:08.566Z,101180.27
2019-02-23T05:26:36.942Z,101184.70
2019-02-23T05:29:05.348Z,101179.49
2019-02-23T05:31:33.705Z,101181.30
2019-02-23T05:34:02.821Z,101186.08
2019-02-23T05:36:31.190Z,101183.45
2019-02-23T05:38:59.581Z,101185.20
2019-02-23T05:41:28.014Z,101187.39
2019-02-23T05:43:56.394Z,101187.79
2019-02-23T05:46:24.772Z,101186.97
2019-02-23T05:48:53.150Z,101190.09
2019-02-23T05:51:21.527Z,101180.91
2019-02-23T05:53:49.914Z,101177.43
2019-02-23T05:56:18.289Z,101179.24
2019-02-23T05:58:46.850Z,101182.70
2019-02-23T06:01:15.230Z,101191.02
2019-02-23T06:03:43.618Z,101192.24
2019-02-23T06:06:11.994Z,101195.38
2019-02-23T06:08:40.381Z,101198.48
2019-02-23T06:11:08.759Z,101203.72
2019-02-23T06:13:37.140Z,101205.92
2019-02-23T06:16:05.636Z,101206.36
2019-02-23T06:18:34.007Z,101208.07
2019-02-23T06:21:03.147Z,101214.27
2019-02-23T06:23:31.522Z,101215.59
2019-02-23T06:25:59.965Z,101215.59
2019-02-23T06:28:28.341Z,101212.08
2019-02-23T06:30:56.717Z,101212.95
2019-02-23T06:33:25.099Z,101207.25
2019-02-23T06:35:53.484Z,101212.13
2019-02-23T06:38:21.955Z,101216.96
2019-02-23T06:40:53.061Z,101211.25
2019-02-23T06:43:21.465Z,101216.48
2019-02-23T06:45:49.863Z,101222.68
2019-02-23T06:48:19.953Z,101222.28
2019-02-23T06:50:48.345Z,101220.53
2019-02-23T06:53:16.823Z,101220.53
2019-02-23T06:55:45.212Z,101231.14
2019-02-23T06:58:13.698Z,101218.09
2019-02-23T07:00:42.070Z,101228.98
2019-02-23T07:03:10.452Z,101232.06
2019-02-23T07:05:38.941Z,101232.07
2019-02-23T07:08:07.416Z,101228.98
2019-02-23T07:10:35.803Z,101232.07
2019-02-23T07:13:04.178Z,101233.87
2019-02-23T07:15:33.536Z,101229.13
2019-02-23T07:18:01.943Z,101222.63
2019-02-23T07:20:30.355Z,101230.84
2019-02-23T07:22:58.707Z,101232.59
2019-02-23T07:25:27.092Z,101234.75
2019-02-23T07:27:55.468Z,101231.23
2019-02-23T07:30:23.852Z,101229.03
2019-02-23T07:32:52.226Z,101230.80
2019-02-23T07:35:20.616Z,101223.36
2019-02-23T07:37:49.070Z,101225.95
2019-02-23T07:40:17.925Z,101226.78
2019-02-23T07:42:46.975Z,101224.88
2019-02-23T07:45:15.358Z,101208.90
2019-02-23T07:47:43.828Z,101208.90
2019-02-23T07:50:14.251Z,101222.63
2019-02-23T07:52:42.637Z,101217.17
2019-02-23T07:55:11.097Z,101219.17
2019-02-23T07:57:39.475Z,101214.27
2019-02-23T08:00:12.875Z,101214.47
2019-02-23T08:02:41.258Z,101214.84
2019-02-23T08:05:10.372Z,101208.59
2019-02-23T08:07:39.917Z,101208.97
2019-02-23T08:10:10.522Z,101210.62
2019-02-23T08:12:38.906Z,101213.16
2019-02-23T08:15:10.011Z,101210.56
2019-02-23T08:17:38.504Z,101217.39
2019-02-23T08:20:09.628Z,101219.87
2019-02-23T08:22:38.016Z,101214.94
2019-02-23T08:25:09.130Z,101203.88
2019-02-23T08:27:37.528Z,101202.45
2019-02-23T08:30:09.214Z,101195.23
2019-02-23T08:32:37.987Z,101187.58
2019-02-23T08:35:07.706Z,101192.36
2019-02-23T08:37:36.095Z,101185.14
2019-02-23T08:40:07.259Z,101182.87
2019-02-23T08:42:35.705Z,101184.64
2019-02-23T08:45:04.984Z,101184.97
2019-02-23T08:47:34.277Z,101180.39
2019-02-23T08:50:02.651Z,101188.19
2019-02-23T08:52:31.027Z,101194.18
2019-02-23T08:54:59.413Z,101189.23
2019-02-23T08:57:27.795Z,101177.20
2019-02-23T08:59:56.172Z,101165.59
2019-02-23T09:02:24.548Z,101165.59
2019-02-23T09:04:52.938Z,101171.44
2019-02-23T09:07:21.453Z,101171.20
2019-02-23T09:09:49.846Z,101185.19
2019-02-23T09:12:18.224Z,101191.60
2019-02-23T09:14:46.696Z,101190.44
2019-02-23T09:17:15.080Z,101186.33
2019-02-23T09:19:43.464Z,101194.03
2019-02-23T09:22:11.897Z,101195.23
2019-02-23T09:24:40.376Z,101194.22
2019-02-23T09:27:08.761Z,101202.49
2019-02-23T09:29:37.144Z,101198.83
2019-02-23T09:32:05.531Z,101196.88
2019-02-23T09:34:34.634Z,101191.50
2019-02-23T09:37:03.087Z,101190.53
2019-02-23T09:39:31.467Z,101187.31
2019-02-23T09:42:07.216Z,101198.17
2019-02-23T09:44:29.947Z,101206.36
2019-02-23T09:46:58.325Z,101195.65
2019-02-23T09:49:26.706Z,101195.65
2019-02-23T09:51:55.078Z,101201.54
2019-02-23T09:54:23.466Z,101203.07
2019-02-23T09:56:51.863Z,101199.45
2019-02-23T09:59:20.239Z,101208.21
2019-02-23T10:01:48.614Z,101204.98
2019-02-23T10:04:17.003Z,101208.39
2019-02-23T10:06:45.387Z,101205.19
2019-02-23T10:09:13.772Z,101204.16
2019-02-23T10:11:42.169Z,101216.47
2019-02-23T10:14:10.653Z,101206.52
2019-02-23T10:16:39.032Z,101211.12
2019-02-23T10:19:07.467Z,101216.03
2019-02-23T10:21:35.859Z,101222.27
2019-02-23T10:24:04.908Z,101212.13
2019-02-23T10:26:33.299Z,101203.73
2019-02-23T10:29:01.676Z,101206.77
2019-02-23T10:31:30.089Z,101203.66
2019-02-23T10:33:58.468Z,101205.31
2019-02-23T10:36:26.856Z,101212.00
2019-02-23T10:41:16.042Z,101202.97
2019-02-23T10:43:44.423Z,101197.56
2019-02-23T10:46:12.803Z,101183.51
2019-02-23T10:48:41.175Z,101183.15
2019-02-23T10:51:09.564Z,101191.64
2019-02-23T10:53:37.944Z,101179.30
2019-02-23T10:56:06.331Z,101181.95
2019-02-23T10:58:35.133Z,101179.66
2019-02-23T11:01:03.689Z,101179.18
2019-02-23T11:03:32.066Z,101179.54
2019-02-23T11:06:00.526Z,101175.05
2019-02-23T11:08:28.907Z,101181.94
2019-02-23T11:10:57.299Z,101179.58
2019-02-23T11:13:25.684Z,101178.06
2019-02-23T11:15:54.076Z,101184.02
2019-02-23T11:18:22.456Z,101167.92
2019-02-23T11:20:50.891Z,101168.25
2019-02-23T11:23:19.332Z,101166.34
2019-02-23T11:25:47.755Z,101167.09
2019-02-23T11:28:16.246Z,101156.84
2019-02-23T11:30:44.622Z,101158.59
2019-02-23T11:33:13.011Z,101158.00
2019-02-23T11:35:41.495Z,101155.16
2019-02-23T11:38:09.878Z,101162.94
2019-02-23T11:40:38.255Z,101148.43
2019-02-23T11:43:06.649Z,101146.30
2019-02-23T11:45:35.440Z,101139.48
2019-02-23T11:48:03.837Z,101139.34
2019-02-23T11:50:32.220Z,101135.20
2019-02-23T11:53:00.616Z,101127.56
2019-02-23T11:55:28.992Z,101135.86
2019-02-23T11:57:57.408Z,101126.10
2019-02-23T12:00:25.791Z,101118.16
2019-02-23T12:02:54.179Z,101105.38
2019-02-23T12:05:22.563Z,101091.64
2019-02-23T12:07:50.943Z,101099.21
2019-02-23T12:10:19.319Z,101104.45
2019-02-23T12:12:47.707Z,101093.70
2019-02-23T12:15:16.162Z,101101.27
2019-02-23T12:17:44.549Z,101093.53
2019-02-23T12:20:12.991Z,101084.77
2019-02-23T12:22:41.381Z,101081.70
2019-02-23T12:25:12.961Z,101082.58
2019-02-23T12:27:40.147Z,101078.95
2019-02-23T12:30:10.901Z,101063.08
2019-02-23T12:32:39.308Z,101064.96
2019-02-23T12:35:10.099Z,101064.48
2019-02-23T12:37:38.496Z,101061.44
2019-02-23T12:40:08.412Z,101049.06
2019-02-23T12:42:36.863Z,101057.47
2019-02-23T12:45:11.235Z,101054.43
2019-02-23T12:47:39.631Z,101054.88
2019-02-23T12:50:11.062Z,101054.88
2019-02-23T12:52:39.448Z,101057.12
2019-02-23T12:55:11.748Z,101049.66
2019-02-23T12:57:40.139Z,101052.44
2019-02-23T13:00:12.104Z,101049.79
2019-02-23T13:02:40.564Z,101048.50
2019-02-23T13:05:09.320Z,101043.34
2019-02-23T13:07:37.706Z,101050.42
2019-02-23T13:10:11.348Z,101042.09
2019-02-23T13:12:54.290Z,101041.21
2019-02-23T13:15:31.507Z,101044.80
2019-02-23T13:18:28.982Z,101042.16
2019-02-23T13:21:19.869Z,101036.51
2019-02-23T13:24:14.731Z,101032.28
2019-02-23T13:26:51.996Z,101035.49
2019-02-23T13:29:29.410Z,101031.72
2019-02-23T13:32:00.895Z,101029.59
2019-02-23T13:34:56.708Z,101036.28
2019-02-23T13:37:30.849Z,101042.23
2019-02-23T13:40:11.244Z,101036.14
2019-02-23T13:43:05.373Z,101042.83
2019-02-23T13:45:58.236Z,101036.86
2019-02-23T13:48:32.650Z,101044.80
2019-02-23T13:51:13.250Z,101037.45
2019-02-23T13:53:53.142Z,101048.20
2019-02-23T13:56:49.768Z,101049.14
2019-02-23T13:59:43.545Z,101050.08
2019-02-23T14:02:31.256Z,101047.53
2019-02-23T14:05:17.829Z,101047.08
2019-02-23T14:08:12.235Z,101043.11
2019-02-23T14:11:06.191Z,101036.10
2019-02-23T14:13:37.632Z,101028.22
2019-02-23T14:16:24.546Z,101030.06
2019-02-23T14:18:55.977Z,101035.49
2019-02-23T14:21:45.523Z,101028.00
2019-02-23T14:24:55.867Z,101028.45
2019-02-23T14:27:48.478Z,101031.55
2019-02-23T14:30:22.805Z,101025.48
2019-02-23T14:33:06.389Z,101025.55
2019-02-23T14:35:37.817Z,101023.81
2019-02-23T14:38:29.014Z,101018.22
2019-02-23T14:41:09.154Z,101009.03
2019-02-23T14:43:58.788Z,101009.03
2019-02-23T14:46:38.809Z,101008.25
2019-02-23T14:49:21.933Z,101017.55
2019-02-23T14:51:53.425Z,101018.55
2019-02-23T14:54:39.910Z,101021.33
2019-02-23T14:57:20.103Z,101022.23
2019-02-23T14:59:51.524Z,101024.20
2019-02-23T15:02:42.569Z,101031.30
2019-02-23T15:05:29.279Z,101037.05
2019-02-23T15:08:33.642Z,101037.05
2019-02-23T15:11:21.458Z,101037.05
2019-02-23T15:14:10.805Z,101028.84
2019-02-23T15:17:04.887Z,101027.07
2019-02-23T15:20:07.908Z,101023.16
2019-02-23T15:22:57.977Z,101024.48
2019-02-23T15:25:35.368Z,101026.39
2019-02-23T15:28:36.010Z,101030.00
2019-02-23T15:31:15.391Z,101034.03
2019-02-23T15:33:55.671Z,101025.70
2019-02-23T15:36:39.248Z,101035.88
2019-02-23T15:39:16.630Z,101039.45
2019-02-23T15:42:06.248Z,101037.77
2019-02-23T15:44:46.472Z,101043.94
2019-02-23T15:47:34.859Z,101043.61
2019-02-23T15:50:13.963Z,101043.67
2019-02-23T15:52:33.552Z,101041.05
2019-02-23T15:55:01.905Z,101042.86
2019-02-23T15:57:30.289Z,101038.47
2019-02-23T15:59:58.689Z,101041.59
2019-02-23T16:02:27.065Z,101050.95
2019-02-23T16:04:55.441Z,101049.63
2019-02-23T16:07:23.826Z,101049.59
2019-02-23T16:09:52.271Z,101051.37
2019-02-23T16:12:20.634Z,101047.47
2019-02-23T16:14:49.000Z,101044.39
2019-02-23T16:17:17.388Z,101043.13
2019-02-23T16:19:45.764Z,101047.55
2019-02-23T16:22:14.146Z,101052.84
2019-02-23T16:24:42.528Z,101049.36
2019-02-23T16:27:10.915Z,101049.51
2019-02-23T16:29:39.302Z,101049.12
2019-02-23T16:32:07.688Z,101044.85
2019-02-23T16:34:36.063Z,101055.43
2019-02-23T16:37:04.454Z,101046.72
2019-02-23T16:39:32.884Z,101053.84
2019-02-23T16:42:01.272Z,101060.03
2019-02-23T16:44:29.657Z,101067.97
2019-02-23T16:46:58.039Z,101071.42
2019-02-23T16:49:26.421Z,101075.84
2019-02-23T16:51:54.802Z,101075.95
2019-02-23T16:54:23.269Z,101076.02
2019-02-23T16:56:51.647Z,101082.62
2019-02-23T16:59:20.029Z,101077.84
2019-02-23T17:01:48.403Z,101079.23
2019-02-23T17:04:16.890Z,101080.55
2019-02-23T17:06:45.353Z,101078.90
2019-02-23T17:09:13.659Z,101078.47
2019-02-23T17:11:42.038Z,101082.05
2019-02-23T17:14:10.419Z,101066.12
2019-02-23T17:16:38.798Z,101071.11
2019-02-23T17:19:07.940Z,101070.33
2019-02-23T17:21:36.340Z,101065.61
2019-02-23T17:24:04.835Z,101072.22
2019-02-23T17:26:36.532Z,101074.86
2019-02-23T17:29:03.326Z,101079.28
2019-02-23T17:31:31.723Z,101079.78
2019-02-23T17:34:00.199Z,101088.22
2019-02-23T17:36:28.588Z,101092.25
2019-02-23T17:38:56.966Z,101094.19
2019-02-23T17:41:25.375Z,101092.48
2019-02-23T17:43:54.208Z,101084.48
2019-02-23T17:46:22.675Z,101086.71
2019-02-23T17:48:51.061Z,101089.35
2019-02-23T17:51:19.444Z,101085.87
2019-02-23T17:53:47.827Z,101079.77
2019-02-23T17:56:16.202Z,101076.73
2019-02-23T17:58:44.593Z,101078.53
2019-02-23T18:01:12.967Z,101077.66
2019-02-23T18:03:41.351Z,101074.63
2019-02-23T18:06:09.726Z,101072.03
2019-02-23T18:08:38.243Z,101074.70
2019-02-23T18:11:06.619Z,101076.51
2019-02-23T18:13:35.073Z,101072.17
2019-02-23T18:16:03.456Z,101072.17
2019-02-23T18:18:31.844Z,101073.98
2019-02-23T18:21:00.297Z,101071.78
2019-02-23T18:23:28.711Z,101067.45
2019-02-23T18:25:57.088Z,101065.69
2019-02-23T18:28:25.471Z,101064.42
2019-02-23T18:30:53.846Z,101065.38
2019-02-23T18:33:22.226Z,101059.81
2019-02-23T18:35:50.614Z,101053.77
2019-02-23T18:38:18.998Z,101056.47
2019-02-23T18:40:47.386Z,101062.25
2019-02-23T18:43:15.761Z,101061.83
2019-02-23T18:45:47.341Z,101058.91
2019-02-23T18:48:14.256Z,101064.64
2019-02-23T18:50:42.660Z,101067.28
2019-02-23T18:53:11.061Z,101068.21
2019-02-23T18:55:41.307Z,101074.39
2019-02-23T18:58:09.689Z,101079.28
2019-02-23T19:00:38.646Z,101080.16
2019-02-23T19:03:07.024Z,101074.66
2019-02-23T19:05:35.431Z,101076.55
2019-02-23T19:08:03.895Z,101080.50
2019-02-23T19:10:32.383Z,101079.19
2019-02-23T19:13:00.759Z,101079.63
2019-02-23T19:15:29.146Z,101085.84
2019-02-23T19:17:57.548Z,101085.34
2019-02-23T19:20:25.937Z,101087.05
2019-02-23T19:22:54.316Z,101082.22
2019-02-23T19:25:22.708Z,101084.47
2019-02-23T19:27:51.160Z,101090.14
2019-02-23T19:30:19.822Z,101086.69
2019-02-23T19:32:48.208Z,101091.56
2019-02-23T19:35:16.603Z,101092.62
2019-02-23T19:37:45.021Z,101090.52
2019-02-23T19:40:13.412Z,101093.11
2019-02-23T19:42:41.793Z,101093.89
2019-02-23T19:45:11.748Z,101095.21
2019-02-23T19:47:41.925Z,101097.02
2019-02-23T19:50:13.549Z,101094.42
2019-02-23T19:52:41.941Z,101096.53
2019-02-23T19:55:13.673Z,101096.25
2019-02-23T19:57:42.053Z,101099.44
2019-02-23T20:00:10.717Z,101096.75
2019-02-23T20:02:39.268Z,101090.54
2019-02-23T20:05:10.106Z,101094.92
2019-02-23T20:07:39.205Z,101091.02
2019-02-23T20:10:09.837Z,101098.46
2019-02-23T20:12:39.201Z,101095.53
2019-02-23T20:15:09.727Z,101095.59
2019-02-23T20:17:38.105Z,101094.61
2019-02-23T20:20:07.540Z,101094.61
2019-02-23T20:22:35.939Z,101096.86
2019-02-23T20:25:05.834Z,101098.63
2019-02-23T20:27:34.228Z,101097.75
2019-02-23T20:30:02.717Z,101104.34
2019-02-23T20:32:31.738Z,101100.87
2019-02-23T20:35:00.263Z,101100.87
2019-02-23T20:37:28.583Z,101101.31
2019-02-23T20:39:56.973Z,101104.83
2019-02-23T20:42:25.391Z,101103.51
2019-02-23T20:44:53.807Z,101096.96
2019-02-23T20:47:22.206Z,101095.64
2019-02-23T20:49:50.677Z,101100.10
2019-02-23T20:52:19.152Z,101097.91
2019-02-23T20:54:47.530Z,101101.47
2019-02-23T20:57:16.010Z,101104.95
2019-02-23T20:59:44.387Z,101105.01
2019-02-23T21:02:12.847Z,101106.81
2019-02-23T21:04:41.299Z,101109.89
2019-02-23T21:07:09.687Z,101116.05
2019-02-23T21:09:38.135Z,101113.48
2019-02-23T21:12:06.553Z,101109.47
2019-02-23T21:14:34.918Z,101106.09
2019-02-23T21:17:03.312Z,101101.70
2019-02-23T21:19:31.696Z,101099.83
2019-02-23T21:22:00.085Z,101101.20
2019-02-23T21:24:28.465Z,101111.39
2019-02-23T21:26:56.846Z,101101.36
2019-02-23T21:29:25.427Z,101107.98
2019-02-23T21:31:54.843Z,101097.95
2019-02-23T21:34:23.225Z,101103.23
2019-02-23T21:36:51.617Z,101099.79
2019-02-23T21:39:19.993Z,101094.14
2019-02-23T21:41:48.380Z,101095.51
2019-02-23T21:44:16.756Z,101089.34
2019-02-23T21:46:45.226Z,101085.88
2019-02-23T21:49:13.603Z,101078.41
2019-02-23T21:51:42.088Z,101079.83
2019-02-23T21:54:11.056Z,101080.22
2019-02-23T21:56:39.976Z,101074.61
2019-02-23T21:59:08.442Z,101072.02
2019-02-23T22:01:36.934Z,101072.91
2019-02-23T22:04:05.473Z,101074.00
2019-02-23T22:06:33.906Z,101077.47
2019-02-23T22:09:02.295Z,101072.34
2019-02-23T22:11:30.664Z,101074.00
2019-02-23T22:13:59.111Z,101068.23
2019-02-23T22:16:27.508Z,101075.75
2019-02-23T22:18:55.975Z,101064.72
2019-02-23T22:21:24.390Z,101066.97
2019-02-23T22:23:52.773Z,101073.95
2019-02-23T22:26:21.175Z,101072.19
2019-02-23T22:28:49.557Z,101073.95
2019-02-23T22:31:17.940Z,101081.53
2019-02-23T22:33:46.481Z,101085.88
2019-02-23T22:36:14.945Z,101086.70
2019-02-23T22:38:43.413Z,101083.19
2019-02-23T22:41:11.807Z,101083.67
2019-02-23T22:43:40.295Z,101089.78
2019-02-23T22:46:08.678Z,101084.50
2019-02-23T22:48:37.050Z,101086.25
2019-02-23T22:51:05.440Z,101087.14
2019-02-23T22:53:33.815Z,101093.34
2019-02-23T22:56:02.205Z,101095.11
2019-02-23T22:58:30.599Z,101097.25
2019-02-23T23:01:00.892Z,101094.13
2019-02-23T23:03:29.268Z,101095.89
2019-02-23T23:05:57.644Z,101093.73
2019-02-23T23:08:26.027Z,101098.08
2019-02-23T23:10:54.407Z,101101.59
2019-02-23T23:13:22.873Z,101098.47
2019-02-23T23:15:51.341Z,101100.22
2019-02-23T23:18:19.728Z,101104.58
2019-02-23T23:20:48.118Z,101106.32
2019-02-23T23:23:16.504Z,101106.32
2019-02-23T23:25:44.963Z,101108.96
2019-02-23T23:28:13.351Z,101108.48
2019-02-23T23:30:41.822Z,101105.00
2019-02-23T23:33:10.654Z,101103.20
2019-02-23T23:35:39.029Z,101101.48
2019-02-23T23:38:07.479Z,101099.24
2019-02-23T23:40:35.848Z,101097.08
2019-02-23T23:43:04.232Z,101094.46
2019-02-23T23:45:32.623Z,101088.73
2019-02-23T23:48:01.011Z,101092.30
2019-02-23T23:50:29.387Z,101086.59
2019-02-23T23:52:57.850Z,101086.20
2019-02-23T23:55:26.318Z,101090.55
2019-02-23T23:57:58.241Z,101089.72
